createdAt,value
2016-02-28T00:00:35.611Z,23.5
2016-02-28T00:01:35.614Z,23.43
2016-02-28T00:02:35.616Z,23.42
2016-02-28T00:03:35.619Z,23.48
2016-02-28T00:04:35.622Z,23.5
2016-02-28T00:05:35.624Z,23.57
2016-02-28T00:06:35.627Z,23.48
2016-02-28T00:07:35.724Z,23.47
2016-02-28T00:08:35.648Z,23.5
2016-02-28T00:09:35.651Z,23.46
2016-02-28T00:10:35.685Z,23.53
2016-02-28T00:11:35.671Z,23.5
2016-02-28T00:12:35.675Z,23.54
2016-02-28T00:13:35.662Z,23.48
2016-02-28T00:14:35.680Z,23.53
2016-02-28T00:15:44.701Z,23.58
2016-02-28T00:16:35.685Z,23.48
2016-02-28T00:17:35.688Z,23.51
2016-02-28T00:18:35.690Z,23.43
2016-02-28T00:19:35.699Z,23.42
2016-02-28T00:20:35.702Z,23.47
2016-02-28T00:21:35.704Z,23.53
2016-02-28T00:22:35.739Z,23.5
2016-02-28T00:23:35.725Z,23.43
2016-02-28T00:24:35.744Z,23.46
2016-02-28T00:25:35.732Z,23.5
2016-02-28T00:26:35.734Z,23.54
2016-02-28T00:27:35.753Z,23.48
2016-02-28T00:28:35.755Z,23.43
2016-02-28T00:29:35.758Z,23.43
2016-02-28T00:30:35.760Z,23.46
2016-02-28T00:31:35.763Z,23.57
2016-02-28T00:32:35.766Z,23.43
2016-02-28T00:33:35.628Z,23.54
2016-02-28T00:34:35.772Z,23.51
2016-02-28T00:35:35.774Z,23.53
2016-02-28T00:36:35.792Z,23.54
2016-02-28T00:37:35.795Z,23.5
2016-02-28T00:38:35.797Z,23.5
2016-02-28T00:39:35.800Z,23.47
2016-02-28T00:40:35.803Z,23.4
2016-02-28T00:41:35.821Z,23.42
2016-02-28T00:42:35.824Z,23.4
2016-02-28T00:43:35.810Z,23.4
2016-02-28T00:44:35.844Z,23.39
2016-02-28T00:48:56.404Z,23.42
2016-02-28T00:49:25.107Z,23.42
2016-02-28T00:50:25.110Z,23.4
2016-02-28T00:51:25.113Z,23.4
2016-02-28T00:52:25.132Z,23.39
2016-02-28T00:53:25.119Z,23.39
2016-02-28T00:54:25.137Z,23.38
2016-02-28T00:55:25.124Z,23.42
2016-02-28T00:56:25.126Z,23.47
2016-02-28T00:57:25.129Z,23.36
2016-02-28T00:58:25.132Z,23.43
2016-02-28T00:59:25.135Z,23.36
2016-02-28T01:00:25.153Z,23.39
2016-02-28T01:01:25.172Z,23.43
2016-02-28T01:02:25.159Z,23.38
2016-02-28T01:03:25.162Z,23.39
2016-02-28T01:04:25.164Z,23.38
2016-02-28T01:05:25.198Z,23.43
2016-02-28T01:06:25.233Z,23.35
2016-02-28T01:07:25.188Z,23.47
2016-02-28T01:08:25.206Z,23.42
2016-02-28T01:09:25.208Z,23.4
2016-02-28T01:10:25.196Z,23.39
2016-02-28T01:11:25.199Z,23.38
2016-02-28T01:12:25.217Z,23.36
2016-02-28T01:13:25.220Z,23.39
2016-02-28T01:14:25.222Z,23.4
2016-02-28T01:20:36.020Z,23.33
2016-02-28T01:21:40.882Z,23.28
2016-02-28T01:22:36.025Z,23.33
2016-02-28T01:23:36.028Z,23.28
2016-02-28T01:24:36.031Z,23.4
2016-02-28T01:25:36.049Z,23.39
2016-02-28T01:26:36.051Z,23.4
2016-02-28T01:27:36.054Z,23.28
2016-02-28T01:28:36.041Z,23.42
2016-02-28T01:29:36.060Z,23.36
2016-02-28T01:30:36.062Z,23.25
2016-02-28T01:31:36.065Z,23.32
2016-02-28T01:32:36.068Z,23.27
2016-02-28T01:33:36.101Z,23.33
2016-02-28T01:34:36.089Z,23.32
2016-02-28T01:35:36.091Z,23.36
2016-02-28T01:36:36.141Z,23.32
2016-02-28T01:37:36.097Z,23.32
2016-02-28T01:38:36.100Z,23.38
2016-02-28T01:39:36.117Z,23.33
2016-02-28T01:40:36.120Z,23.35
2016-02-28T01:41:36.123Z,23.27
2016-02-28T01:42:36.157Z,23.33
2016-02-28T01:43:36.128Z,23.27
2016-02-28T01:44:36.131Z,23.33
2016-02-28T01:45:36.149Z,23.36
2016-02-28T01:46:35.996Z,23.32
2016-02-28T01:47:35.983Z,23.31
2016-02-28T01:48:36.157Z,23.36
2016-02-28T01:49:36.160Z,23.32
2016-02-28T01:50:36.163Z,23.39
2016-02-28T01:51:36.166Z,23.31
2016-02-28T01:52:36.168Z,23.38
2016-02-28T01:53:36.187Z,23.28
2016-02-28T01:54:36.174Z,23.39
2016-02-28T01:55:36.208Z,23.39
2016-02-28T01:56:36.288Z,23.35
2016-02-28T01:57:36.198Z,23.25
2016-02-28T01:58:36.200Z,23.28
2016-02-28T01:59:36.265Z,23.32
2016-02-28T02:00:36.221Z,23.36
2016-02-28T02:01:36.223Z,23.28
2016-02-28T02:02:36.242Z,23.32
2016-02-28T02:03:36.229Z,23.27
2016-02-28T02:04:36.248Z,23.36
2016-02-28T02:05:36.234Z,23.32
2016-02-28T02:06:36.253Z,23.36
2016-02-28T02:07:36.255Z,23.28
2016-02-28T02:08:36.258Z,23.27
2016-02-28T02:09:36.261Z,23.38
2016-02-28T02:10:36.311Z,23.38
2016-02-28T02:11:36.266Z,23.31
2016-02-28T02:12:36.285Z,23.31
2016-02-28T02:13:36.288Z,23.25
2016-02-28T02:14:36.321Z,23.35
2016-02-28T02:16:07.608Z,23.35
2016-02-28T02:16:36.296Z,23.33
2016-02-28T02:17:36.345Z,23.31
2016-02-28T02:18:36.316Z,23.25
2016-02-28T02:19:36.304Z,23.33
2016-02-28T02:20:36.322Z,23.28
2016-02-28T02:21:36.325Z,23.32
2016-02-28T02:22:36.327Z,23.39
2016-02-28T02:23:36.330Z,23.39
2016-02-28T02:24:36.332Z,23.38
2016-02-28T02:25:36.351Z,23.36
2016-02-28T02:26:36.354Z,23.27
2016-02-28T02:27:36.356Z,23.28
2016-02-28T02:28:36.359Z,23.38
2016-02-28T02:29:36.346Z,23.31
2016-02-28T02:30:36.365Z,23.36
2016-02-28T02:31:36.382Z,23.32
2016-02-28T02:32:36.385Z,23.28
2016-02-28T02:33:36.372Z,23.35
2016-02-28T02:34:36.390Z,23.39
2016-02-28T02:35:36.393Z,23.33
2016-02-28T02:36:36.396Z,23.38
2016-02-28T02:37:36.398Z,23.4
2016-02-28T02:38:36.401Z,23.38
2016-02-28T02:39:36.403Z,23.33
2016-02-28T02:40:36.422Z,23.31
2016-02-28T02:41:36.425Z,23.28
2016-02-28T02:42:36.428Z,23.32
2016-02-28T02:43:36.431Z,23.32
2016-02-28T02:44:36.433Z,23.38
2016-02-28T02:51:46.265Z,23.36
2016-02-28T02:52:14.954Z,23.36
2016-02-28T02:53:14.973Z,23.4
2016-02-28T02:54:14.976Z,23.39
2016-02-28T02:55:14.979Z,23.4
2016-02-28T02:56:14.981Z,23.38
2016-02-28T02:57:14.999Z,23.36
2016-02-28T02:58:14.987Z,23.4
2016-02-28T02:59:14.989Z,23.39
2016-02-28T03:00:15.054Z,23.38
2016-02-28T03:01:14.995Z,23.39
2016-02-28T03:02:15.012Z,23.31
2016-02-28T03:03:15.015Z,23.32
2016-02-28T03:04:15.034Z,23.38
2016-02-28T03:05:15.020Z,23.43
2016-02-28T03:06:15.023Z,23.35
2016-02-28T03:07:15.042Z,23.32
2016-02-28T03:08:15.045Z,23.31
2016-02-28T03:09:15.048Z,23.32
2016-02-28T03:10:15.050Z,23.36
2016-02-28T03:11:15.053Z,23.32
2016-02-28T03:12:15.055Z,23.32
2016-02-28T03:13:15.058Z,23.36
2016-02-28T03:14:15.077Z,23.38
2016-02-28T03:16:50.723Z,23.38
2016-02-28T03:17:50.741Z,23.36
2016-02-28T03:18:50.728Z,23.38
2016-02-28T03:19:50.730Z,23.4
2016-02-28T03:20:50.733Z,23.38
2016-02-28T03:21:50.736Z,23.33
2016-02-28T03:22:50.754Z,23.4
2016-02-28T03:23:50.757Z,23.31
2016-02-28T03:24:50.744Z,23.31
2016-02-28T03:25:50.762Z,23.36
2016-02-28T03:26:50.765Z,23.33
2016-02-28T03:27:50.799Z,23.4
2016-02-28T03:28:50.786Z,23.38
2016-02-28T03:29:50.773Z,23.36
2016-02-28T03:30:50.776Z,23.33
2016-02-28T03:31:50.793Z,23.42
2016-02-28T03:32:50.796Z,23.36
2016-02-28T03:33:50.831Z,23.36
2016-02-28T03:34:50.801Z,23.36
2016-02-28T03:35:50.820Z,23.46
2016-02-28T03:36:50.823Z,23.46
2016-02-28T03:37:50.825Z,23.43
2016-02-28T03:38:50.828Z,23.39
2016-02-28T03:39:50.831Z,23.36
2016-02-28T03:40:50.849Z,23.4
2016-02-28T03:41:50.836Z,23.38
2016-02-28T03:42:50.839Z,23.35
2016-02-28T03:43:50.842Z,23.39
2016-02-28T03:44:50.891Z,23.39
2016-02-28T03:49:42.749Z,23.39
2016-02-28T03:49:55.392Z,23.42
2016-02-28T03:50:55.411Z,23.43
2016-02-28T03:51:55.413Z,23.39
2016-02-28T03:52:55.416Z,23.38
2016-02-28T03:53:55.419Z,23.39
2016-02-28T03:54:55.421Z,23.39
2016-02-28T03:55:55.440Z,23.33
2016-02-28T03:56:55.426Z,23.42
2016-02-28T03:57:55.429Z,23.38
2016-02-28T03:58:55.462Z,23.39
2016-02-28T03:59:55.450Z,23.39
2016-02-28T04:00:55.468Z,23.36
2016-02-28T04:01:55.471Z,23.4
2016-02-28T04:02:55.458Z,23.4
2016-02-28T04:03:55.466Z,23.4
2016-02-28T04:04:55.468Z,23.42
2016-02-28T04:05:55.487Z,23.36
2016-02-28T04:06:55.490Z,23.36
2016-02-28T04:07:55.493Z,23.4
2016-02-28T04:08:55.525Z,23.43
2016-02-28T04:09:55.513Z,23.4
2016-02-28T04:10:55.516Z,23.4
2016-02-28T04:11:55.500Z,23.39
2016-02-28T04:12:55.503Z,23.38
2016-02-28T04:13:55.506Z,23.36
2016-02-28T04:14:55.525Z,23.35
2016-02-28T04:17:51.173Z,23.4
2016-02-28T04:18:51.175Z,23.43
2016-02-28T04:19:51.177Z,23.4
2016-02-28T04:20:51.181Z,23.36
2016-02-28T04:21:51.183Z,23.36
2016-02-28T04:22:51.186Z,23.4
2016-02-28T04:23:51.252Z,23.28
2016-02-28T04:24:51.223Z,23.38
2016-02-28T04:25:51.210Z,23.39
2016-02-28T04:26:51.212Z,23.38
2016-02-28T04:27:51.215Z,23.36
2016-02-28T04:28:51.234Z,23.32
2016-02-28T04:29:51.237Z,23.38
2016-02-28T04:30:51.239Z,23.36
2016-02-28T04:31:51.242Z,23.32
2016-02-28T04:32:51.245Z,23.33
2016-02-28T04:33:51.247Z,23.35
2016-02-28T04:34:51.250Z,23.28
2016-02-28T04:35:51.268Z,23.35
2016-02-28T04:36:51.255Z,23.27
2016-02-28T04:37:51.273Z,23.35
2016-02-28T04:38:51.276Z,23.36
2016-02-28T04:39:51.278Z,23.33
2016-02-28T04:40:51.281Z,23.35
2016-02-28T04:41:51.300Z,23.38
2016-02-28T04:42:51.287Z,23.33
2016-02-28T04:43:51.289Z,23.36
2016-02-28T04:44:51.308Z,23.32
2016-02-28T04:46:00.344Z,23.35
2016-02-28T04:46:51.328Z,23.35
2016-02-28T04:47:51.316Z,23.33
2016-02-28T04:48:51.319Z,23.33
2016-02-28T04:49:51.321Z,23.32
2016-02-28T04:50:51.324Z,23.31
2016-02-28T04:51:51.342Z,23.27
2016-02-28T04:52:51.344Z,23.31
2016-02-28T04:53:51.347Z,23.28
2016-02-28T04:54:51.350Z,23.39
2016-02-28T04:55:51.400Z,23.33
2016-02-28T04:56:51.355Z,23.25
2016-02-28T04:57:51.374Z,23.35
2016-02-28T04:58:51.377Z,23.35
2016-02-28T04:59:51.410Z,23.31
2016-02-28T05:00:51.382Z,23.35
2016-02-28T05:01:51.384Z,23.28
2016-02-28T05:02:51.404Z,23.28
2016-02-28T05:03:51.390Z,23.33
2016-02-28T05:04:51.409Z,23.36
2016-02-28T05:05:51.412Z,23.33
2016-02-28T05:06:51.414Z,23.31
2016-02-28T05:07:51.432Z,23.27
2016-02-28T05:08:51.435Z,23.32
2016-02-28T05:09:51.422Z,23.32
2016-02-28T05:10:51.425Z,23.42
2016-02-28T05:11:51.428Z,23.36
2016-02-28T05:12:51.446Z,23.39
2016-02-28T05:13:51.464Z,23.36
2016-02-28T05:14:51.466Z,23.38
2016-02-28T05:16:42.988Z,23.4
2016-02-28T05:16:55.659Z,23.36
2016-02-28T05:17:55.678Z,23.36
2016-02-28T05:18:55.649Z,23.32
2016-02-28T05:19:55.667Z,23.28
2016-02-28T05:20:55.670Z,23.4
2016-02-28T05:21:55.673Z,23.39
2016-02-28T05:22:55.675Z,23.33
2016-02-28T05:23:55.538Z,23.33
2016-02-28T05:24:55.681Z,23.32
2016-02-28T05:25:55.683Z,23.42
2016-02-28T05:26:55.702Z,23.33
2016-02-28T05:27:55.704Z,23.38
2016-02-28T05:28:55.708Z,23.35
2016-02-28T05:29:55.741Z,23.38
2016-02-28T05:30:55.729Z,23.42
2016-02-28T05:31:55.731Z,23.39
2016-02-28T05:32:55.718Z,23.38
2016-02-28T05:33:55.721Z,23.36
2016-02-28T05:34:55.739Z,23.31
2016-02-28T05:35:55.742Z,23.39
2016-02-28T05:36:55.745Z,23.38
2016-02-28T05:37:55.779Z,23.33
2016-02-28T05:38:55.750Z,23.28
2016-02-28T05:39:55.753Z,23.36
2016-02-28T05:40:55.756Z,23.42
2016-02-28T05:41:55.774Z,23.36
2016-02-28T05:42:55.776Z,23.38
2016-02-28T05:43:55.779Z,23.28
2016-02-28T05:44:55.781Z,23.38
2016-02-28T05:46:00.019Z,23.28
2016-02-28T05:46:55.787Z,23.33
2016-02-28T05:47:55.789Z,23.35
2016-02-28T05:48:55.808Z,23.38
2016-02-28T05:49:55.827Z,23.31
2016-02-28T05:50:55.814Z,23.33
2016-02-28T05:51:55.816Z,23.32
2016-02-28T05:52:55.835Z,23.22
2016-02-28T05:53:55.838Z,23.28
2016-02-28T05:54:55.824Z,23.4
2016-02-28T05:55:55.843Z,23.36
2016-02-28T05:56:55.846Z,23.36
2016-02-28T05:57:55.848Z,23.33
2016-02-28T05:58:55.851Z,23.36
2016-02-28T05:59:55.854Z,23.31
2016-02-28T06:00:55.903Z,23.35
2016-02-28T06:01:55.874Z,23.28
2016-02-28T06:02:55.877Z,23.33
2016-02-28T06:03:55.879Z,23.35
2016-02-28T06:04:55.882Z,23.27
2016-02-28T06:05:55.885Z,23.28
2016-02-28T06:06:55.903Z,23.28
2016-02-28T06:07:55.921Z,23.32
2016-02-28T06:08:55.909Z,23.33
2016-02-28T06:09:55.912Z,23.28
2016-02-28T06:10:55.914Z,23.38
2016-02-28T06:11:55.917Z,23.32
2016-02-28T06:12:55.935Z,23.38
2016-02-28T06:13:55.922Z,23.35
2016-02-28T06:14:55.925Z,23.39
2016-02-28T06:15:55.927Z,23.33
2016-02-28T06:16:55.946Z,23.33
2016-02-28T06:17:55.948Z,23.35
2016-02-28T06:18:55.951Z,23.35
2016-02-28T06:19:55.954Z,23.32
2016-02-28T06:20:55.956Z,23.32
2016-02-28T06:21:55.959Z,23.32
2016-02-28T06:22:55.977Z,23.33
2016-02-28T06:23:55.964Z,23.32
2016-02-28T06:24:55.983Z,23.38
2016-02-28T06:25:55.985Z,23.36
2016-02-28T06:26:56.004Z,23.35
2016-02-28T06:27:55.991Z,23.4
2016-02-28T06:28:55.994Z,23.35
2016-02-28T06:29:56.012Z,23.42
2016-02-28T06:30:55.999Z,23.38
2016-02-28T06:31:56.033Z,23.47
2016-02-28T06:32:56.005Z,23.39
2016-02-28T06:33:56.038Z,23.36
2016-02-28T06:34:55.869Z,23.4
2016-02-28T06:35:56.044Z,23.46
2016-02-28T06:36:55.875Z,23.46
2016-02-28T06:37:56.049Z,23.35
2016-02-28T06:38:56.052Z,23.46
2016-02-28T06:39:56.054Z,23.47
2016-02-28T06:40:56.057Z,23.42
2016-02-28T06:41:56.060Z,23.39
2016-02-28T06:42:56.062Z,23.38
2016-02-28T06:43:56.097Z,23.43
2016-02-28T06:44:56.068Z,23.5
2016-02-28T06:46:58.714Z,23.43
2016-02-28T06:47:11.389Z,23.5
2016-02-28T06:48:11.375Z,23.43
2016-02-28T06:49:11.394Z,23.48
2016-02-28T06:50:11.397Z,23.54
2016-02-28T06:51:11.414Z,23.53
2016-02-28T06:52:11.403Z,23.51
2016-02-28T06:53:11.467Z,23.55
2016-02-28T06:54:11.455Z,23.4
2016-02-28T06:55:11.425Z,23.38
2016-02-28T06:56:11.428Z,23.54
2016-02-28T06:57:11.447Z,23.42
2016-02-28T06:58:11.450Z,23.51
2016-02-28T06:59:11.436Z,23.55
2016-02-28T07:00:11.893Z,23.55
2016-02-28T07:01:11.474Z,23.48
2016-02-28T07:02:11.445Z,23.43
2016-02-28T07:03:11.463Z,23.51
2016-02-28T07:04:11.466Z,23.47
2016-02-28T07:05:11.469Z,23.53
2016-02-28T07:06:11.471Z,23.51
2016-02-28T07:07:11.490Z,23.5
2016-02-28T07:08:11.476Z,23.46
2016-02-28T07:09:11.495Z,23.48
2016-02-28T07:10:11.498Z,23.43
2016-02-28T07:11:11.515Z,23.53
2016-02-28T07:12:11.503Z,23.53
2016-02-28T07:13:11.521Z,23.48
2016-02-28T07:14:11.524Z,23.46
2016-02-28T07:15:11.526Z,23.51
2016-02-28T07:18:44.737Z,23.55
2016-02-28T07:19:44.771Z,23.46
2016-02-28T07:20:44.758Z,23.48
2016-02-28T07:21:44.777Z,23.5
2016-02-28T07:22:44.764Z,23.53
2016-02-28T07:23:44.767Z,23.46
2016-02-28T07:24:44.847Z,23.5
2016-02-28T07:25:44.788Z,23.58
2016-02-28T07:26:44.791Z,23.54
2016-02-28T07:27:44.794Z,23.48
2016-02-28T07:28:44.827Z,23.4
2016-02-28T07:29:44.830Z,23.53
2016-02-28T07:30:44.832Z,23.51
2016-02-28T07:31:44.835Z,23.48
2016-02-28T07:32:44.838Z,23.51
2016-02-28T07:33:44.824Z,23.51
2016-02-28T07:34:44.827Z,23.47
2016-02-28T07:35:44.830Z,23.48
2016-02-28T07:36:44.833Z,23.51
2016-02-28T07:37:44.851Z,23.54
2016-02-28T07:38:44.870Z,23.5
2016-02-28T07:39:44.857Z,23.46
2016-02-28T07:40:44.859Z,23.48
2016-02-28T07:41:44.893Z,23.47
2016-02-28T07:42:44.880Z,23.4
2016-02-28T07:43:44.884Z,23.5
2016-02-28T07:44:44.887Z,23.42
2016-02-28T07:49:25.690Z,23.4
2016-02-28T07:49:38.331Z,23.48
2016-02-28T07:50:38.337Z,23.39
2016-02-28T07:51:38.328Z,23.46
2016-02-28T07:52:38.334Z,23.48
2016-02-28T07:53:38.315Z,23.4
2016-02-28T07:54:38.329Z,23.46
2016-02-28T07:55:38.329Z,23.46
2016-02-28T07:56:38.030Z,23.46
2016-02-28T07:57:38.325Z,23.39
2016-02-28T07:58:38.326Z,23.42
2016-02-28T07:59:38.343Z,23.36
2016-02-28T08:00:38.329Z,23.47
2016-02-28T08:01:38.346Z,23.4
2016-02-28T08:02:38.331Z,23.39
2016-02-28T08:03:38.364Z,23.42
2016-02-28T08:04:38.351Z,23.4
2016-02-28T08:05:38.353Z,23.38
2016-02-28T08:06:38.355Z,23.42
2016-02-28T08:07:38.357Z,23.54
2016-02-28T08:08:38.376Z,23.63
2016-02-28T08:09:38.378Z,23.69
2016-02-28T08:10:38.411Z,23.73
2016-02-28T08:11:38.382Z,23.9
2016-02-28T08:12:38.401Z,23.87
2016-02-28T08:13:38.387Z,23.91
2016-02-28T08:14:38.421Z,23.87
2016-02-28T08:18:16.588Z,23.88
2016-02-28T08:19:16.591Z,23.9
2016-02-28T08:20:16.624Z,24
2016-02-28T08:21:16.612Z,23.98
2016-02-28T08:22:16.631Z,24.13
2016-02-28T08:23:16.633Z,24.09
2016-02-28T08:24:16.636Z,24.21
2016-02-28T08:25:16.654Z,24.16
2016-02-28T08:26:16.657Z,24.16
2016-02-28T08:27:16.674Z,24.24
2016-02-28T08:28:16.678Z,24.24
2016-02-28T08:29:16.696Z,24.3
2016-02-28T08:30:16.699Z,24.34
2016-02-28T08:31:16.748Z,24.32
2016-02-28T08:32:16.719Z,24.39
2016-02-28T08:33:16.737Z,24.37
2016-02-28T08:34:16.741Z,24.46
2016-02-28T08:35:16.760Z,24.43
2016-02-28T08:36:16.762Z,24.42
2016-02-28T08:37:16.765Z,24.46
2016-02-28T08:38:16.798Z,24.47
2016-02-28T08:39:16.785Z,24.52
2016-02-28T08:40:16.803Z,24.55
2016-02-28T08:41:16.822Z,24.45
2016-02-28T08:42:16.825Z,24.46
2016-02-28T08:43:16.828Z,24.49
2016-02-28T08:44:16.845Z,24.49
2016-02-28T08:46:32.147Z,24.49
2016-02-28T08:47:32.167Z,24.58
2016-02-28T08:48:32.170Z,24.43
2016-02-28T08:49:32.187Z,24.35
2016-02-28T08:50:32.190Z,24.47
2016-02-28T08:51:32.224Z,24.5
2016-02-28T08:52:32.211Z,24.57
2016-02-28T08:53:32.213Z,24.73
2016-02-28T08:54:32.232Z,24.83
2016-02-28T08:55:32.235Z,24.99
2016-02-28T08:56:32.238Z,24.91
2016-02-28T08:57:32.272Z,25
2016-02-28T08:58:32.274Z,24.98
2016-02-28T08:59:32.277Z,25.05
2016-02-28T09:00:32.279Z,24.98
2016-02-28T09:01:32.282Z,24.87
2016-02-28T09:02:32.301Z,24.87
2016-02-28T09:03:32.321Z,24.78
2016-02-28T09:04:32.354Z,24.8
2016-02-28T09:05:32.331Z,24.8
2016-02-28T09:06:32.334Z,24.85
2016-02-28T09:07:32.336Z,24.87
2016-02-28T09:08:32.370Z,24.91
2016-02-28T09:09:32.372Z,24.9
2016-02-28T09:10:32.375Z,24.88
2016-02-28T09:11:32.378Z,24.78
2016-02-28T09:12:32.428Z,24.91
2016-02-28T09:13:32.414Z,25.06
2016-02-28T09:14:32.402Z,25.45
2016-02-28T09:20:48.637Z,26.17
2016-02-28T09:21:48.624Z,26.25
2016-02-28T09:22:48.643Z,26.29
2016-02-28T09:23:48.645Z,26.36
2016-02-28T09:24:48.663Z,26.66
2016-02-28T09:25:48.665Z,26.87
2016-02-28T09:26:48.669Z,27.12
2016-02-28T09:27:48.687Z,27.34
2016-02-28T09:28:48.705Z,27.55
2016-02-28T09:29:48.708Z,27.72
2016-02-28T09:30:48.710Z,27.85
2016-02-28T09:31:48.729Z,27.81
2016-02-28T09:32:48.747Z,27.82
2016-02-28T09:33:48.751Z,27.99
2016-02-28T09:34:48.753Z,28.21
2016-02-28T09:35:48.862Z,28.34
2016-02-28T09:36:48.817Z,28.36
2016-02-28T09:37:48.633Z,28.51
2016-02-28T09:38:49.307Z,28.51
2016-02-28T09:39:48.802Z,28.41
2016-02-28T09:40:48.804Z,28.37
2016-02-28T09:41:48.822Z,28.48
2016-02-28T09:42:48.825Z,28.21
2016-02-28T09:43:48.843Z,28.18
2016-02-28T09:44:48.862Z,27.96
2016-02-28T09:49:29.682Z,27.41
2016-02-28T09:49:42.339Z,27.43
2016-02-28T09:50:42.419Z,27.19
2016-02-28T09:51:42.187Z,27.13
2016-02-28T09:52:42.347Z,26.97
2016-02-28T09:53:42.364Z,26.26
2016-02-28T09:54:42.367Z,25.24
2016-02-28T09:55:42.385Z,24.5
2016-02-28T09:56:42.388Z,24.06
2016-02-28T09:57:42.406Z,23.85
2016-02-28T09:58:42.408Z,23.69
2016-02-28T09:59:42.412Z,23.57
2016-02-28T10:00:42.430Z,23.54
2016-02-28T10:01:42.433Z,23.4
2016-02-28T10:02:42.425Z,23.32
2016-02-28T10:03:42.444Z,23.23
2016-02-28T10:04:42.447Z,23.27
2016-02-28T10:05:42.152Z,23.15
2016-02-28T10:06:42.473Z,23.19
2016-02-28T10:07:42.476Z,23.09
2016-02-28T10:08:42.479Z,23.04
2016-02-28T10:09:42.482Z,23.05
2016-02-28T10:10:42.485Z,23.15
2016-02-28T10:11:42.488Z,23.13
2016-02-28T10:12:42.506Z,23.16
2016-02-28T10:13:42.540Z,23.16
2016-02-28T10:14:42.496Z,23.23
2016-02-28T10:18:20.678Z,23.33
2016-02-28T10:19:20.681Z,23.31
2016-02-28T10:20:20.716Z,23.31
2016-02-28T10:21:20.703Z,23.31
2016-02-28T10:22:20.705Z,23.4
2016-02-28T10:23:20.708Z,23.39
2016-02-28T10:24:20.726Z,23.39
2016-02-28T10:25:20.729Z,23.35
2016-02-28T10:26:20.731Z,23.35
2016-02-28T10:27:20.734Z,23.36
2016-02-28T10:28:20.737Z,23.32
2016-02-28T10:29:20.740Z,23.38
2016-02-28T10:30:20.789Z,23.28
2016-02-28T10:31:20.760Z,23.28
2016-02-28T10:32:20.763Z,23.32
2016-02-28T10:33:20.766Z,23.31
2016-02-28T10:34:20.768Z,23.31
2016-02-28T10:35:20.771Z,23.32
2016-02-28T10:36:20.789Z,23.35
2016-02-28T10:37:20.792Z,23.35
2016-02-28T10:38:20.795Z,23.32
2016-02-28T10:39:20.813Z,23.31
2016-02-28T10:40:20.816Z,23.23
2016-02-28T10:41:20.835Z,23.19
2016-02-28T10:42:20.821Z,23.31
2016-02-28T10:43:20.824Z,23.23
2016-02-28T10:44:20.842Z,23.25
2016-02-28T10:49:21.747Z,23.19
2016-02-28T10:49:34.434Z,23.16
2016-02-28T10:50:34.422Z,23.1
2016-02-28T10:51:34.439Z,23.12
2016-02-28T10:52:34.286Z,23.19
2016-02-28T10:53:34.475Z,23.15
2016-02-28T10:54:34.447Z,23.2
2016-02-28T10:55:34.465Z,23.1
2016-02-28T10:56:34.453Z,23.17
2016-02-28T10:57:34.471Z,23.13
2016-02-28T10:58:34.474Z,23.15
2016-02-28T10:59:34.476Z,23.16
2016-02-28T11:00:34.666Z,23.15
2016-02-28T11:01:34.482Z,23.12
2016-02-28T11:02:34.485Z,23.05
2016-02-28T11:03:34.503Z,23.07
2016-02-28T11:04:34.521Z,23.01
2016-02-28T11:05:34.508Z,22.98
2016-02-28T11:06:34.510Z,23.01
2016-02-28T11:07:34.529Z,23.04
2016-02-28T11:08:34.532Z,23
2016-02-28T11:09:34.551Z,23
2016-02-28T11:10:34.537Z,23
2016-02-28T11:11:34.603Z,23
2016-02-28T11:12:34.543Z,23.04
2016-02-28T11:13:34.576Z,22.94
2016-02-28T11:14:34.564Z,23.09
2016-02-28T11:17:31.244Z,23
2016-02-28T11:18:31.231Z,22.98
2016-02-28T11:19:31.249Z,22.97
2016-02-28T11:20:31.236Z,22.97
2016-02-28T11:21:31.254Z,22.98
2016-02-28T11:22:31.273Z,22.94
2016-02-28T11:23:31.261Z,22.97
2016-02-28T11:24:31.263Z,22.88
2016-02-28T11:25:31.281Z,22.88
2016-02-28T11:26:31.299Z,22.91
2016-02-28T11:27:31.286Z,22.97
2016-02-28T11:28:31.304Z,23
2016-02-28T11:29:31.292Z,22.95
2016-02-28T11:30:31.325Z,23.05
2016-02-28T11:31:31.297Z,22.98
2016-02-28T11:32:31.362Z,22.95
2016-02-28T11:33:31.318Z,22.94
2016-02-28T11:34:31.336Z,23.01
2016-02-28T11:35:31.338Z,22.85
2016-02-28T11:36:31.341Z,22.86
2016-02-28T11:37:31.360Z,22.86
2016-02-28T11:38:31.207Z,22.83
2016-02-28T11:39:31.365Z,22.95
2016-02-28T11:40:31.352Z,22.88
2016-02-28T11:41:31.370Z,22.9
2016-02-28T11:42:31.357Z,22.91
2016-02-28T11:43:31.376Z,22.97
2016-02-28T11:44:31.363Z,22.97
2016-02-28T11:47:49.308Z,22.91
2016-02-28T11:48:49.327Z,22.83
2016-02-28T11:49:49.314Z,22.85
2016-02-28T11:50:49.333Z,22.77
2016-02-28T11:51:49.350Z,22.83
2016-02-28T11:52:49.338Z,22.82
2016-02-28T11:53:49.372Z,22.86
2016-02-28T11:54:49.344Z,22.86
2016-02-28T11:55:49.361Z,22.82
2016-02-28T11:56:49.349Z,22.76
2016-02-28T11:57:49.383Z,22.79
2016-02-28T11:58:49.369Z,22.8
2016-02-28T11:59:49.372Z,22.77
2016-02-28T12:00:49.391Z,22.79
2016-02-28T12:01:49.377Z,22.79
2016-02-28T12:02:49.458Z,22.73
2016-02-28T12:03:49.399Z,22.79
2016-02-28T12:04:49.401Z,22.7
2016-02-28T12:05:49.404Z,22.79
2016-02-28T12:06:49.422Z,22.67
2016-02-28T12:07:49.457Z,22.67
2016-02-28T12:08:49.443Z,22.79
2016-02-28T12:09:49.462Z,22.7
2016-02-28T12:10:49.432Z,22.76
2016-02-28T12:11:49.436Z,22.67
2016-02-28T12:12:49.438Z,22.68
2016-02-28T12:13:49.441Z,22.77
2016-02-28T12:14:49.490Z,22.76
2016-02-28T12:15:49.540Z,22.76
2016-02-28T12:16:49.512Z,22.73
2016-02-28T12:17:49.483Z,22.68
2016-02-28T12:18:49.470Z,22.68
2016-02-28T12:19:49.520Z,22.67
2016-02-28T12:20:49.491Z,22.68
2016-02-28T12:21:49.556Z,22.68
2016-02-28T12:22:49.528Z,22.79
2016-02-28T12:23:49.500Z,22.68
2016-02-28T12:24:49.503Z,22.7
2016-02-28T12:25:49.520Z,22.73
2016-02-28T12:26:49.523Z,22.72
2016-02-28T12:27:49.525Z,22.7
2016-02-28T12:28:49.544Z,22.73
2016-02-28T12:29:49.547Z,22.72
2016-02-28T12:30:49.534Z,22.65
2016-02-28T12:31:49.536Z,22.73
2016-02-28T12:32:49.555Z,22.75
2016-02-28T12:33:49.557Z,22.64
2016-02-28T12:34:49.544Z,22.65
2016-02-28T12:35:49.563Z,22.7
2016-02-28T12:36:49.566Z,22.67
2016-02-28T12:37:49.584Z,22.61
2016-02-28T12:38:49.587Z,22.64
2016-02-28T12:39:49.590Z,22.6
2016-02-28T12:40:49.592Z,22.64
2016-02-28T12:41:49.595Z,22.6
2016-02-28T12:42:49.598Z,22.6
2016-02-28T12:43:49.709Z,22.7
2016-02-28T12:44:49.603Z,22.65
2016-02-28T12:49:30.445Z,22.62
2016-02-28T12:49:43.101Z,22.65
2016-02-28T12:50:43.103Z,22.67
2016-02-28T12:51:43.106Z,22.61
2016-02-28T12:52:43.156Z,22.61
2016-02-28T12:53:43.003Z,22.58
2016-02-28T12:54:43.130Z,22.64
2016-02-28T12:55:43.132Z,22.58
2016-02-28T12:56:43.291Z,22.62
2016-02-28T12:57:43.138Z,22.62
2016-02-28T12:58:43.156Z,22.62
2016-02-28T12:59:43.159Z,22.67
2016-02-28T13:00:43.161Z,22.62
2016-02-28T13:01:43.180Z,22.68
2016-02-28T13:02:43.166Z,22.58
2016-02-28T13:03:43.169Z,22.47
2016-02-28T13:04:43.188Z,22.51
2016-02-28T13:05:43.444Z,22.55
2016-02-28T13:06:43.196Z,22.6
2016-02-28T13:07:43.204Z,22.72
2016-02-28T13:08:43.237Z,22.61
2016-02-28T13:09:43.209Z,22.57
2016-02-28T13:10:43.212Z,22.55
2016-02-28T13:11:43.215Z,22.43
2016-02-28T13:12:43.232Z,22.43
2016-02-28T13:13:43.220Z,22.35
2016-02-28T13:14:43.237Z,22.42
2016-02-28T13:18:21.418Z,22.37
2016-02-28T13:19:21.436Z,22.43
2016-02-28T13:20:21.439Z,22.42
2016-02-28T13:21:21.425Z,22.35
2016-02-28T13:22:21.445Z,22.47
2016-02-28T13:23:21.448Z,22.46
2016-02-28T13:24:21.528Z,22.57
2016-02-28T13:25:21.453Z,22.57
2016-02-28T13:26:21.455Z,22.6
2016-02-28T13:27:21.459Z,22.49
2016-02-28T13:28:21.461Z,22.51
2016-02-28T13:29:21.478Z,22.52
2016-02-28T13:30:21.481Z,22.47
2016-02-28T13:31:21.483Z,22.36
2016-02-28T13:32:21.502Z,22.37
2016-02-28T13:33:21.489Z,22.36
2016-02-28T13:34:21.492Z,22.39
2016-02-28T13:35:21.511Z,22.46
2016-02-28T13:36:21.513Z,22.47
2016-02-28T13:37:21.532Z,22.42
2016-02-28T13:38:21.519Z,22.43
2016-02-28T13:39:21.522Z,22.43
2016-02-28T13:40:21.540Z,22.4
2016-02-28T13:41:21.527Z,22.46
2016-02-28T13:42:21.545Z,22.46
2016-02-28T13:43:21.548Z,22.39
2016-02-28T13:44:21.566Z,22.37
2016-02-28T13:45:26.227Z,22.39
2016-02-28T13:46:21.571Z,22.37
2016-02-28T13:47:21.590Z,22.42
2016-02-28T13:48:21.576Z,22.37
2016-02-28T13:49:21.579Z,22.31
2016-02-28T13:50:21.582Z,22.37